sensor_id;sensor_type;location;lat;lon;timestamp;temperature;humidity
47022;DHT22;32779;52.264;6.154;2023-08-08T00:00:08;14.60;99.90
47022;DHT22;32779;52.264;6.154;2023-08-08T00:02:34;14.60;99.90
47022;DHT22;32779;52.264;6.154;2023-08-08T00:05:00;14.60;99.90
47022;DHT22;32779;52.264;6.154;2023-08-08T00:07:26;14.60;99.90
47022;DHT22;32779;52.264;6.154;2023-08-08T00:09:55;14.60;99.90
47022;DHT22;32779;52.264;6.154;2023-08-08T00:12:21;14.50;99.90
47022;DHT22;32779;52.264;6.154;2023-08-08T00:14:46;14.50;99.90
47022;DHT22;32779;52.264;6.154;2023-08-08T00:17:12;14.50;99.90
47022;DHT22;32779;52.264;6.154;2023-08-08T00:19:38;14.50;99.90
47022;DHT22;32779;52.264;6.154;2023-08-08T00:22:03;14.50;99.90
47022;DHT22;32779;52.264;6.154;2023-08-08T00:24:29;14.50;99.90
47022;DHT22;32779;52.264;6.154;2023-08-08T00:26:54;14.40;99.90
47022;DHT22;32779;52.264;6.154;2023-08-08T00:29:20;14.40;99.90
47022;DHT22;32779;52.264;6.154;2023-08-08T00:31:45;14.40;99.90
47022;DHT22;32779;52.264;6.154;2023-08-08T00:34:11;14.40;99.90
47022;DHT22;32779;52.264;6.154;2023-08-08T00:36:37;14.40;99.90
47022;DHT22;32779;52.264;6.154;2023-08-08T00:39:02;14.30;99.90
47022;DHT22;32779;52.264;6.154;2023-08-08T00:41:28;14.30;99.90
47022;DHT22;32779;52.264;6.154;2023-08-08T00:43:53;14.30;99.90
47022;DHT22;32779;52.264;6.154;2023-08-08T00:46:21;14.30;99.90
47022;DHT22;32779;52.264;6.154;2023-08-08T00:48:47;14.30;99.90
47022;DHT22;32779;52.264;6.154;2023-08-08T00:51:13;14.30;99.90
47022;DHT22;32779;52.264;6.154;2023-08-08T00:53:39;14.30;99.90
47022;DHT22;32779;52.264;6.154;2023-08-08T00:56:05;14.40;99.90
47022;DHT22;32779;52.264;6.154;2023-08-08T00:58:30;14.40;99.90
47022;DHT22;32779;52.264;6.154;2023-08-08T01:00:56;14.40;99.90
47022;DHT22;32779;52.264;6.154;2023-08-08T01:03:25;14.40;99.90
47022;DHT22;32779;52.264;6.154;2023-08-08T01:06:05;14.40;99.90
47022;DHT22;32779;52.264;6.154;2023-08-08T01:08:42;14.40;99.90
47022;DHT22;32779;52.264;6.154;2023-08-08T01:11:11;14.40;99.90
47022;DHT22;32779;52.264;6.154;2023-08-08T01:13:39;14.50;99.90
47022;DHT22;32779;52.264;6.154;2023-08-08T01:16:06;14.50;99.90
47022;DHT22;32779;52.264;6.154;2023-08-08T01:18:33;14.50;99.90
47022;DHT22;32779;52.264;6.154;2023-08-08T01:21:01;14.60;99.90
47022;DHT22;32779;52.264;6.154;2023-08-08T01:23:42;14.60;99.90
47022;DHT22;32779;52.264;6.154;2023-08-08T01:26:09;14.60;99.90
47022;DHT22;32779;52.264;6.154;2023-08-08T01:28:35;14.60;99.90
47022;DHT22;32779;52.264;6.154;2023-08-08T01:31:00;14.60;99.90
47022;DHT22;32779;52.264;6.154;2023-08-08T01:33:26;14.70;99.90
47022;DHT22;32779;52.264;6.154;2023-08-08T01:36:00;14.60;99.90
47022;DHT22;32779;52.264;6.154;2023-08-08T01:38:38;14.60;99.90
47022;DHT22;32779;52.264;6.154;2023-08-08T01:41:06;14.60;99.90
47022;DHT22;32779;52.264;6.154;2023-08-08T01:43:33;14.60;99.90
47022;DHT22;32779;52.264;6.154;2023-08-08T01:46:00;14.50;99.90
47022;DHT22;32779;52.264;6.154;2023-08-08T01:48:28;14.50;99.90
47022;DHT22;32779;52.264;6.154;2023-08-08T01:50:53;14.50;99.90
47022;DHT22;32779;52.264;6.154;2023-08-08T01:53:19;14.50;99.90
47022;DHT22;32779;52.264;6.154;2023-08-08T01:55:45;14.40;99.90
47022;DHT22;32779;52.264;6.154;2023-08-08T01:58:10;14.50;99.90
47022;DHT22;32779;52.264;6.154;2023-08-08T02:00:36;14.50;99.90
47022;DHT22;32779;52.264;6.154;2023-08-08T02:03:02;14.50;99.90
47022;DHT22;32779;52.264;6.154;2023-08-08T02:05:28;14.50;99.90
47022;DHT22;32779;52.264;6.154;2023-08-08T02:07:53;14.50;99.90
47022;DHT22;32779;52.264;6.154;2023-08-08T02:10:19;14.40;99.90
47022;DHT22;32779;52.264;6.154;2023-08-08T02:12:44;14.50;99.90
47022;DHT22;32779;52.264;6.154;2023-08-08T02:15:10;14.40;99.90
47022;DHT22;32779;52.264;6.154;2023-08-08T02:17:38;14.40;99.90
47022;DHT22;32779;52.264;6.154;2023-08-08T02:20:05;14.40;99.90
47022;DHT22;32779;52.264;6.154;2023-08-08T02:22:32;14.40;99.90
47022;DHT22;32779;52.264;6.154;2023-08-08T02:24:57;14.50;99.90
47022;DHT22;32779;52.264;6.154;2023-08-08T02:27:23;14.40;99.90
47022;DHT22;32779;52.264;6.154;2023-08-08T02:29:49;14.40;99.90
47022;DHT22;32779;52.264;6.154;2023-08-08T02:32:14;14.40;99.90
47022;DHT22;32779;52.264;6.154;2023-08-08T02:34:40;14.50;99.90
47022;DHT22;32779;52.264;6.154;2023-08-08T02:37:05;14.50;99.90
47022;DHT22;32779;52.264;6.154;2023-08-08T02:39:31;14.50;99.90
47022;DHT22;32779;52.264;6.154;2023-08-08T02:41:56;14.50;99.90
47022;DHT22;32779;52.264;6.154;2023-08-08T02:44:22;14.50;99.90
47022;DHT22;32779;52.264;6.154;2023-08-08T02:46:48;14.50;99.90
47022;DHT22;32779;52.264;6.154;2023-08-08T02:49:14;14.50;99.90
47022;DHT22;32779;52.264;6.154;2023-08-08T02:51:40;14.50;99.90
47022;DHT22;32779;52.264;6.154;2023-08-08T02:54:05;14.50;99.90
47022;DHT22;32779;52.264;6.154;2023-08-08T02:56:31;14.50;99.90
47022;DHT22;32779;52.264;6.154;2023-08-08T02:58:56;14.50;99.90
47022;DHT22;32779;52.264;6.154;2023-08-08T03:01:23;14.50;99.90
47022;DHT22;32779;52.264;6.154;2023-08-08T03:03:48;14.50;99.90
47022;DHT22;32779;52.264;6.154;2023-08-08T03:06:14;14.50;99.90
47022;DHT22;32779;52.264;6.154;2023-08-08T03:08:39;14.50;99.90
47022;DHT22;32779;52.264;6.154;2023-08-08T03:11:05;14.50;99.90
47022;DHT22;32779;52.264;6.154;2023-08-08T03:13:31;14.40;99.90
47022;DHT22;32779;52.264;6.154;2023-08-08T03:15:56;14.40;99.90
47022;DHT22;32779;52.264;6.154;2023-08-08T03:18:22;14.40;99.90
47022;DHT22;32779;52.264;6.154;2023-08-08T03:20:48;14.40;99.90
47022;DHT22;32779;52.264;6.154;2023-08-08T03:23:14;14.40;99.90
47022;DHT22;32779;52.264;6.154;2023-08-08T03:25:39;14.40;99.90
47022;DHT22;32779;52.264;6.154;2023-08-08T03:28:05;14.40;99.90
47022;DHT22;32779;52.264;6.154;2023-08-08T03:30:30;14.30;99.90
47022;DHT22;32779;52.264;6.154;2023-08-08T03:32:56;14.40;99.90
47022;DHT22;32779;52.264;6.154;2023-08-08T03:35:22;14.30;99.90
47022;DHT22;32779;52.264;6.154;2023-08-08T03:37:47;14.30;99.90
47022;DHT22;32779;52.264;6.154;2023-08-08T03:40:13;14.30;99.90
47022;DHT22;32779;52.264;6.154;2023-08-08T03:42:42;14.40;99.90
47022;DHT22;32779;52.264;6.154;2023-08-08T03:45:08;14.40;99.90
47022;DHT22;32779;52.264;6.154;2023-08-08T03:47:34;14.40;99.90
47022;DHT22;32779;52.264;6.154;2023-08-08T03:49:59;14.40;99.90
47022;DHT22;32779;52.264;6.154;2023-08-08T03:52:25;14.40;99.90
47022;DHT22;32779;52.264;6.154;2023-08-08T03:54:51;14.40;99.90
47022;DHT22;32779;52.264;6.154;2023-08-08T03:57:17;14.40;99.90
47022;DHT22;32779;52.264;6.154;2023-08-08T03:59:43;14.50;99.90
47022;DHT22;32779;52.264;6.154;2023-08-08T04:02:08;14.50;99.90
47022;DHT22;32779;52.264;6.154;2023-08-08T04:04:34;14.50;99.90
47022;DHT22;32779;52.264;6.154;2023-08-08T04:07:00;14.40;99.90
47022;DHT22;32779;52.264;6.154;2023-08-08T04:09:25;14.40;99.90
47022;DHT22;32779;52.264;6.154;2023-08-08T04:11:51;14.50;99.90
47022;DHT22;32779;52.264;6.154;2023-08-08T04:14:17;14.40;99.90
47022;DHT22;32779;52.264;6.154;2023-08-08T04:16:42;14.30;99.90
47022;DHT22;32779;52.264;6.154;2023-08-08T04:19:08;14.30;99.90
47022;DHT22;32779;52.264;6.154;2023-08-08T04:21:33;14.40;99.90
47022;DHT22;32779;52.264;6.154;2023-08-08T04:23:59;14.30;99.90
47022;DHT22;32779;52.264;6.154;2023-08-08T04:26:25;14.30;99.90
47022;DHT22;32779;52.264;6.154;2023-08-08T04:28:51;14.30;99.90
47022;DHT22;32779;52.264;6.154;2023-08-08T04:31:17;14.30;99.90
47022;DHT22;32779;52.264;6.154;2023-08-08T04:33:43;14.30;99.90
47022;DHT22;32779;52.264;6.154;2023-08-08T04:36:08;14.20;99.90
47022;DHT22;32779;52.264;6.154;2023-08-08T04:38:34;14.30;99.90
47022;DHT22;32779;52.264;6.154;2023-08-08T04:41:00;14.30;99.90
47022;DHT22;32779;52.264;6.154;2023-08-08T04:43:25;14.30;99.90
47022;DHT22;32779;52.264;6.154;2023-08-08T04:45:53;14.30;99.90
47022;DHT22;32779;52.264;6.154;2023-08-08T04:48:18;14.30;99.90
47022;DHT22;32779;52.264;6.154;2023-08-08T04:50:46;14.30;99.90
47022;DHT22;32779;52.264;6.154;2023-08-08T04:53:11;14.30;99.90
47022;DHT22;32779;52.264;6.154;2023-08-08T04:55:37;14.30;99.90
47022;DHT22;32779;52.264;6.154;2023-08-08T04:58:03;14.40;99.90
47022;DHT22;32779;52.264;6.154;2023-08-08T05:00:29;14.30;99.90
47022;DHT22;32779;52.264;6.154;2023-08-08T05:02:54;14.30;99.90
47022;DHT22;32779;52.264;6.154;2023-08-08T05:05:20;14.30;99.90
47022;DHT22;32779;52.264;6.154;2023-08-08T05:07:45;14.40;99.90
47022;DHT22;32779;52.264;6.154;2023-08-08T05:10:11;14.40;99.90
47022;DHT22;32779;52.264;6.154;2023-08-08T05:12:36;14.40;99.90
47022;DHT22;32779;52.264;6.154;2023-08-08T05:15:02;14.30;99.90
47022;DHT22;32779;52.264;6.154;2023-08-08T05:17:30;14.40;99.90
47022;DHT22;32779;52.264;6.154;2023-08-08T05:19:57;14.40;99.90
47022;DHT22;32779;52.264;6.154;2023-08-08T05:22:23;14.40;99.90
47022;DHT22;32779;52.264;6.154;2023-08-08T05:24:48;14.40;99.90
47022;DHT22;32779;52.264;6.154;2023-08-08T05:27:14;14.50;99.90
47022;DHT22;32779;52.264;6.154;2023-08-08T05:29:39;14.50;99.90
47022;DHT22;32779;52.264;6.154;2023-08-08T05:32:07;14.60;99.90
47022;DHT22;32779;52.264;6.154;2023-08-08T05:34:36;14.60;99.90
47022;DHT22;32779;52.264;6.154;2023-08-08T05:37:01;14.60;99.90
47022;DHT22;32779;52.264;6.154;2023-08-08T05:39:27;14.70;99.90
47022;DHT22;32779;52.264;6.154;2023-08-08T05:41:53;14.70;99.90
47022;DHT22;32779;52.264;6.154;2023-08-08T05:44:18;14.70;99.90
47022;DHT22;32779;52.264;6.154;2023-08-08T05:46:44;14.80;99.90
47022;DHT22;32779;52.264;6.154;2023-08-08T05:49:10;14.80;99.90
47022;DHT22;32779;52.264;6.154;2023-08-08T05:51:35;14.80;99.90
47022;DHT22;32779;52.264;6.154;2023-08-08T05:54:01;14.80;99.90
47022;DHT22;32779;52.264;6.154;2023-08-08T05:56:34;14.80;99.90
47022;DHT22;32779;52.264;6.154;2023-08-08T05:59:01;14.90;99.90
47022;DHT22;32779;52.264;6.154;2023-08-08T06:01:27;14.90;99.90
47022;DHT22;32779;52.264;6.154;2023-08-08T06:03:52;14.90;99.90
47022;DHT22;32779;52.264;6.154;2023-08-08T06:06:18;14.90;99.90
47022;DHT22;32779;52.264;6.154;2023-08-08T06:08:44;14.90;99.90
47022;DHT22;32779;52.264;6.154;2023-08-08T06:11:10;14.90;99.90
47022;DHT22;32779;52.264;6.154;2023-08-08T06:13:36;15.00;99.90
47022;DHT22;32779;52.264;6.154;2023-08-08T06:16:01;15.00;99.90
47022;DHT22;32779;52.264;6.154;2023-08-08T06:18:28;15.00;99.90
47022;DHT22;32779;52.264;6.154;2023-08-08T06:20:54;15.00;99.90
47022;DHT22;32779;52.264;6.154;2023-08-08T06:23:20;15.10;99.90
47022;DHT22;32779;52.264;6.154;2023-08-08T06:25:45;15.10;99.90
47022;DHT22;32779;52.264;6.154;2023-08-08T06:28:11;15.20;99.90
47022;DHT22;32779;52.264;6.154;2023-08-08T06:30:36;15.30;99.90
47022;DHT22;32779;52.264;6.154;2023-08-08T06:33:02;15.40;99.90
47022;DHT22;32779;52.264;6.154;2023-08-08T06:35:28;15.40;99.90
47022;DHT22;32779;52.264;6.154;2023-08-08T06:37:54;15.50;99.90
47022;DHT22;32779;52.264;6.154;2023-08-08T06:40:19;15.70;99.90
47022;DHT22;32779;52.264;6.154;2023-08-08T06:42:46;15.80;99.90
47022;DHT22;32779;52.264;6.154;2023-08-08T06:45:12;15.90;99.90
47022;DHT22;32779;52.264;6.154;2023-08-08T06:47:37;16.10;99.90
47022;DHT22;32779;52.264;6.154;2023-08-08T06:50:03;16.40;99.90
47022;DHT22;32779;52.264;6.154;2023-08-08T06:52:29;16.50;99.90
47022;DHT22;32779;52.264;6.154;2023-08-08T06:54:54;16.70;99.90
47022;DHT22;32779;52.264;6.154;2023-08-08T06:57:20;16.90;99.90
47022;DHT22;32779;52.264;6.154;2023-08-08T06:59:45;17.10;99.90
47022;DHT22;32779;52.264;6.154;2023-08-08T07:02:16;17.30;99.90
47022;DHT22;32779;52.264;6.154;2023-08-08T07:04:42;17.40;99.90
47022;DHT22;32779;52.264;6.154;2023-08-08T07:07:07;17.60;99.90
47022;DHT22;32779;52.264;6.154;2023-08-08T07:09:33;17.70;99.90
47022;DHT22;32779;52.264;6.154;2023-08-08T07:11:58;17.70;99.90
47022;DHT22;32779;52.264;6.154;2023-08-08T07:14:24;17.90;99.90
47022;DHT22;32779;52.264;6.154;2023-08-08T07:16:50;18.00;99.90
47022;DHT22;32779;52.264;6.154;2023-08-08T07:19:15;18.30;99.90
47022;DHT22;32779;52.264;6.154;2023-08-08T07:21:41;18.20;99.90
47022;DHT22;32779;52.264;6.154;2023-08-08T07:24:07;18.30;99.90
47022;DHT22;32779;52.264;6.154;2023-08-08T07:26:32;18.50;99.90
47022;DHT22;32779;52.264;6.154;2023-08-08T07:28:58;18.50;99.90
47022;DHT22;32779;52.264;6.154;2023-08-08T07:31:23;18.60;99.90
47022;DHT22;32779;52.264;6.154;2023-08-08T07:33:49;18.70;99.90
47022;DHT22;32779;52.264;6.154;2023-08-08T07:36:15;18.80;99.90
47022;DHT22;32779;52.264;6.154;2023-08-08T07:38:40;18.90;99.90
47022;DHT22;32779;52.264;6.154;2023-08-08T07:41:06;19.00;99.90
47022;DHT22;32779;52.264;6.154;2023-08-08T07:43:32;19.00;99.90
47022;DHT22;32779;52.264;6.154;2023-08-08T07:45:59;19.30;99.90
47022;DHT22;32779;52.264;6.154;2023-08-08T07:48:24;19.50;99.90
47022;DHT22;32779;52.264;6.154;2023-08-08T07:50:50;19.40;99.90
47022;DHT22;32779;52.264;6.154;2023-08-08T07:53:15;19.40;99.90
47022;DHT22;32779;52.264;6.154;2023-08-08T07:55:41;19.30;99.90
47022;DHT22;32779;52.264;6.154;2023-08-08T07:58:06;19.30;99.90
47022;DHT22;32779;52.264;6.154;2023-08-08T08:00:32;19.40;99.90
47022;DHT22;32779;52.264;6.154;2023-08-08T08:02:58;19.60;99.90
47022;DHT22;32779;52.264;6.154;2023-08-08T08:05:23;19.70;99.90
47022;DHT22;32779;52.264;6.154;2023-08-08T08:07:49;19.90;99.90
47022;DHT22;32779;52.264;6.154;2023-08-08T08:10:14;19.90;99.90
47022;DHT22;32779;52.264;6.154;2023-08-08T08:12:41;19.90;99.90
47022;DHT22;32779;52.264;6.154;2023-08-08T08:15:07;19.70;99.90
47022;DHT22;32779;52.264;6.154;2023-08-08T08:17:33;19.50;99.90
47022;DHT22;32779;52.264;6.154;2023-08-08T08:19:59;19.40;99.90
47022;DHT22;32779;52.264;6.154;2023-08-08T08:22:25;19.40;99.90
47022;DHT22;32779;52.264;6.154;2023-08-08T08:24:50;19.50;99.90
47022;DHT22;32779;52.264;6.154;2023-08-08T08:27:17;19.50;99.90
47022;DHT22;32779;52.264;6.154;2023-08-08T08:29:43;19.50;99.90
47022;DHT22;32779;52.264;6.154;2023-08-08T08:32:08;19.50;99.90
47022;DHT22;32779;52.264;6.154;2023-08-08T08:34:34;19.40;99.90
47022;DHT22;32779;52.264;6.154;2023-08-08T08:37:00;19.40;99.90
47022;DHT22;32779;52.264;6.154;2023-08-08T08:39:25;19.50;99.90
47022;DHT22;32779;52.264;6.154;2023-08-08T08:41:59;19.70;99.90
47022;DHT22;32779;52.264;6.154;2023-08-08T08:44:31;19.90;99.90
47022;DHT22;32779;52.264;6.154;2023-08-08T08:47:02;20.10;99.90
47022;DHT22;32779;52.264;6.154;2023-08-08T08:49:31;20.50;99.90
47022;DHT22;32779;52.264;6.154;2023-08-08T08:52:00;20.60;99.90
47022;DHT22;32779;52.264;6.154;2023-08-08T08:54:27;20.80;99.90
47022;DHT22;32779;52.264;6.154;2023-08-08T08:56:55;20.60;99.90
47022;DHT22;32779;52.264;6.154;2023-08-08T08:59:21;20.40;99.90
47022;DHT22;32779;52.264;6.154;2023-08-08T09:01:47;20.30;99.90
47022;DHT22;32779;52.264;6.154;2023-08-08T09:04:15;20.10;99.90
47022;DHT22;32779;52.264;6.154;2023-08-08T09:06:42;19.90;99.90
47022;DHT22;32779;52.264;6.154;2023-08-08T09:09:09;19.60;99.90
47022;DHT22;32779;52.264;6.154;2023-08-08T09:11:34;19.70;99.90
47022;DHT22;32779;52.264;6.154;2023-08-08T09:14:00;19.70;99.90
47022;DHT22;32779;52.264;6.154;2023-08-08T09:16:27;19.90;99.90
47022;DHT22;32779;52.264;6.154;2023-08-08T09:18:53;19.60;99.90
47022;DHT22;32779;52.264;6.154;2023-08-08T09:21:19;19.40;99.90
47022;DHT22;32779;52.264;6.154;2023-08-08T09:23:44;19.30;99.90
47022;DHT22;32779;52.264;6.154;2023-08-08T09:26:12;19.10;99.90
47022;DHT22;32779;52.264;6.154;2023-08-08T09:28:38;19.20;99.90
47022;DHT22;32779;52.264;6.154;2023-08-08T09:31:03;19.30;99.90
47022;DHT22;32779;52.264;6.154;2023-08-08T09:33:29;19.50;99.90
47022;DHT22;32779;52.264;6.154;2023-08-08T09:35:55;19.40;99.90
47022;DHT22;32779;52.264;6.154;2023-08-08T09:38:20;19.40;99.90
47022;DHT22;32779;52.264;6.154;2023-08-08T09:40:46;19.40;99.90
47022;DHT22;32779;52.264;6.154;2023-08-08T09:43:12;19.30;99.90
47022;DHT22;32779;52.264;6.154;2023-08-08T09:45:39;19.10;99.90
47022;DHT22;32779;52.264;6.154;2023-08-08T09:48:07;18.90;99.90
47022;DHT22;32779;52.264;6.154;2023-08-08T09:50:33;18.90;99.90
47022;DHT22;32779;52.264;6.154;2023-08-08T09:52:58;19.00;99.90
47022;DHT22;32779;52.264;6.154;2023-08-08T09:55:25;19.00;99.90
47022;DHT22;32779;52.264;6.154;2023-08-08T09:57:51;18.90;99.90
47022;DHT22;32779;52.264;6.154;2023-08-08T10:00:17;19.00;99.90
47022;DHT22;32779;52.264;6.154;2023-08-08T10:02:46;18.90;99.90
47022;DHT22;32779;52.264;6.154;2023-08-08T10:05:14;18.80;99.90
47022;DHT22;32779;52.264;6.154;2023-08-08T10:07:41;18.80;99.90
47022;DHT22;32779;52.264;6.154;2023-08-08T10:10:08;18.80;99.90
47022;DHT22;32779;52.264;6.154;2023-08-08T10:12:39;18.70;99.90
47022;DHT22;32779;52.264;6.154;2023-08-08T10:15:09;18.80;99.90
47022;DHT22;32779;52.264;6.154;2023-08-08T10:17:38;18.80;99.90
47022;DHT22;32779;52.264;6.154;2023-08-08T10:20:05;18.90;99.90
47022;DHT22;32779;52.264;6.154;2023-08-08T10:22:46;18.90;99.90
47022;DHT22;32779;52.264;6.154;2023-08-08T10:25:23;19.00;99.90
47022;DHT22;32779;52.264;6.154;2023-08-08T10:27:48;18.90;99.90
47022;DHT22;32779;52.264;6.154;2023-08-08T10:30:14;19.00;99.90
47022;DHT22;32779;52.264;6.154;2023-08-08T10:32:45;18.80;99.90
47022;DHT22;32779;52.264;6.154;2023-08-08T10:35:14;18.70;99.90
47022;DHT22;32779;52.264;6.154;2023-08-08T10:37:39;18.70;99.90
47022;DHT22;32779;52.264;6.154;2023-08-08T10:40:06;18.70;99.90
47022;DHT22;32779;52.264;6.154;2023-08-08T10:42:40;18.70;99.90
47022;DHT22;32779;52.264;6.154;2023-08-08T10:45:12;18.70;99.90
47022;DHT22;32779;52.264;6.154;2023-08-08T10:47:39;18.90;99.90
47022;DHT22;32779;52.264;6.154;2023-08-08T10:50:16;18.90;99.90
47022;DHT22;32779;52.264;6.154;2023-08-08T10:52:50;18.80;99.90
47022;DHT22;32779;52.264;6.154;2023-08-08T10:55:25;18.80;99.90
47022;DHT22;32779;52.264;6.154;2023-08-08T10:58:08;18.80;99.90
47022;DHT22;32779;52.264;6.154;2023-08-08T11:00:36;18.80;99.90
47022;DHT22;32779;52.264;6.154;2023-08-08T11:03:03;19.00;99.90
47022;DHT22;32779;52.264;6.154;2023-08-08T11:05:33;19.10;99.90
47022;DHT22;32779;52.264;6.154;2023-08-08T11:08:00;19.30;99.90
47022;DHT22;32779;52.264;6.154;2023-08-08T11:10:26;19.40;99.90
47022;DHT22;32779;52.264;6.154;2023-08-08T11:13:03;19.40;99.90
47022;DHT22;32779;52.264;6.154;2023-08-08T11:15:31;19.30;99.90
47022;DHT22;32779;52.264;6.154;2023-08-08T11:17:57;19.60;99.90
47022;DHT22;32779;52.264;6.154;2023-08-08T11:20:23;19.70;99.90
47022;DHT22;32779;52.264;6.154;2023-08-08T11:22:53;19.80;99.90
47022;DHT22;32779;52.264;6.154;2023-08-08T11:25:25;19.90;99.90
47022;DHT22;32779;52.264;6.154;2023-08-08T11:27:54;20.10;99.90
47022;DHT22;32779;52.264;6.154;2023-08-08T11:30:21;20.10;99.90
47022;DHT22;32779;52.264;6.154;2023-08-08T11:32:48;20.20;99.90
47022;DHT22;32779;52.264;6.154;2023-08-08T11:35:20;20.30;99.90
47022;DHT22;32779;52.264;6.154;2023-08-08T11:37:47;20.50;99.90
47022;DHT22;32779;52.264;6.154;2023-08-08T11:40:14;20.60;99.70
47022;DHT22;32779;52.264;6.154;2023-08-08T11:42:40;20.70;99.90
47022;DHT22;32779;52.264;6.154;2023-08-08T11:45:13;20.70;99.80
47022;DHT22;32779;52.264;6.154;2023-08-08T11:47:39;20.90;99.70
47022;DHT22;32779;52.264;6.154;2023-08-08T11:50:07;20.90;99.00
47022;DHT22;32779;52.264;6.154;2023-08-08T11:52:35;20.80;98.80
47022;DHT22;32779;52.264;6.154;2023-08-08T11:55:01;20.70;98.70
47022;DHT22;32779;52.264;6.154;2023-08-08T11:57:27;20.60;99.80
47022;DHT22;32779;52.264;6.154;2023-08-08T11:59:57;20.70;99.70
47022;DHT22;32779;52.264;6.154;2023-08-08T12:02:26;20.70;99.10
47022;DHT22;32779;52.264;6.154;2023-08-08T12:04:52;20.70;99.90
47022;DHT22;32779;52.264;6.154;2023-08-08T12:07:18;20.70;99.50
47022;DHT22;32779;52.264;6.154;2023-08-08T12:09:47;20.60;99.10
47022;DHT22;32779;52.264;6.154;2023-08-08T12:12:13;20.60;99.90
47022;DHT22;32779;52.264;6.154;2023-08-08T12:14:39;20.70;99.90
47022;DHT22;32779;52.264;6.154;2023-08-08T12:17:07;20.60;99.40
47022;DHT22;32779;52.264;6.154;2023-08-08T12:19:34;20.60;99.60
47022;DHT22;32779;52.264;6.154;2023-08-08T12:21:59;20.60;99.30
47022;DHT22;32779;52.264;6.154;2023-08-08T12:24:25;20.60;99.40
47022;DHT22;32779;52.264;6.154;2023-08-08T12:26:51;20.60;99.80
47022;DHT22;32779;52.264;6.154;2023-08-08T12:29:17;20.60;99.80
47022;DHT22;32779;52.264;6.154;2023-08-08T12:31:42;20.60;99.60
47022;DHT22;32779;52.264;6.154;2023-08-08T12:34:08;20.60;99.90
47022;DHT22;32779;52.264;6.154;2023-08-08T12:36:34;20.60;99.80
47022;DHT22;32779;52.264;6.154;2023-08-08T12:39:00;20.70;99.40
47022;DHT22;32779;52.264;6.154;2023-08-08T12:41:25;20.60;99.20
47022;DHT22;32779;52.264;6.154;2023-08-08T12:43:51;20.60;99.90
47022;DHT22;32779;52.264;6.154;2023-08-08T12:46:17;20.50;99.60
47022;DHT22;32779;52.264;6.154;2023-08-08T12:48:43;20.60;99.80
47022;DHT22;32779;52.264;6.154;2023-08-08T12:51:09;20.60;99.90
47022;DHT22;32779;52.264;6.154;2023-08-08T12:53:35;20.60;99.90
47022;DHT22;32779;52.264;6.154;2023-08-08T12:56:01;20.60;99.60
47022;DHT22;32779;52.264;6.154;2023-08-08T12:58:27;20.60;99.50
47022;DHT22;32779;52.264;6.154;2023-08-08T13:00:53;20.30;99.90
47022;DHT22;32779;52.264;6.154;2023-08-08T13:03:18;20.10;99.70
47022;DHT22;32779;52.264;6.154;2023-08-08T13:05:44;19.90;99.90
47022;DHT22;32779;52.264;6.154;2023-08-08T13:08:10;19.90;99.90
47022;DHT22;32779;52.264;6.154;2023-08-08T13:10:36;19.90;99.90
47022;DHT22;32779;52.264;6.154;2023-08-08T13:13:01;20.10;99.90
47022;DHT22;32779;52.264;6.154;2023-08-08T13:15:27;20.20;99.90
47022;DHT22;32779;52.264;6.154;2023-08-08T13:17:53;20.30;99.90
47022;DHT22;32779;52.264;6.154;2023-08-08T13:20:18;20.30;99.90
47022;DHT22;32779;52.264;6.154;2023-08-08T13:22:44;20.40;99.90
47022;DHT22;32779;52.264;6.154;2023-08-08T13:25:10;20.40;99.90
47022;DHT22;32779;52.264;6.154;2023-08-08T13:27:36;20.50;99.90
47022;DHT22;32779;52.264;6.154;2023-08-08T13:30:03;20.60;99.90
47022;DHT22;32779;52.264;6.154;2023-08-08T13:32:29;20.70;99.90
47022;DHT22;32779;52.264;6.154;2023-08-08T13:34:55;20.70;99.90
47022;DHT22;32779;52.264;6.154;2023-08-08T13:37:20;20.60;99.90
47022;DHT22;32779;52.264;6.154;2023-08-08T13:39:46;20.40;99.90
47022;DHT22;32779;52.264;6.154;2023-08-08T13:42:11;20.30;99.90
47022;DHT22;32779;52.264;6.154;2023-08-08T13:44:37;20.30;99.90
47022;DHT22;32779;52.264;6.154;2023-08-08T13:47:03;20.40;99.90
47022;DHT22;32779;52.264;6.154;2023-08-08T13:49:28;20.50;99.90
47022;DHT22;32779;52.264;6.154;2023-08-08T13:51:54;20.70;99.90
47022;DHT22;32779;52.264;6.154;2023-08-08T13:54:20;20.70;99.90
47022;DHT22;32779;52.264;6.154;2023-08-08T13:56:46;20.80;99.90
47022;DHT22;32779;52.264;6.154;2023-08-08T13:59:12;20.90;99.90
47022;DHT22;32779;52.264;6.154;2023-08-08T14:01:38;21.00;99.20
47022;DHT22;32779;52.264;6.154;2023-08-08T14:04:03;21.00;99.00
47022;DHT22;32779;52.264;6.154;2023-08-08T14:06:29;20.90;99.70
47022;DHT22;32779;52.264;6.154;2023-08-08T14:08:56;20.70;99.30
47022;DHT22;32779;52.264;6.154;2023-08-08T14:11:21;20.70;99.60
47022;DHT22;32779;52.264;6.154;2023-08-08T14:13:47;20.70;99.90
47022;DHT22;32779;52.264;6.154;2023-08-08T14:16:13;20.60;99.90
47022;DHT22;32779;52.264;6.154;2023-08-08T14:18:38;20.40;99.40
47022;DHT22;32779;52.264;6.154;2023-08-08T14:21:04;20.30;99.90
47022;DHT22;32779;52.264;6.154;2023-08-08T14:23:31;20.30;99.90
47022;DHT22;32779;52.264;6.154;2023-08-08T14:25:56;20.20;99.90
47022;DHT22;32779;52.264;6.154;2023-08-08T14:28:22;20.10;99.90
47022;DHT22;32779;52.264;6.154;2023-08-08T14:30:47;20.10;99.90
47022;DHT22;32779;52.264;6.154;2023-08-08T14:33:15;20.00;99.90
47022;DHT22;32779;52.264;6.154;2023-08-08T14:35:41;20.00;99.90
47022;DHT22;32779;52.264;6.154;2023-08-08T14:38:07;20.10;99.90
47022;DHT22;32779;52.264;6.154;2023-08-08T14:40:33;20.10;99.90
47022;DHT22;32779;52.264;6.154;2023-08-08T14:43:00;20.10;99.90
47022;DHT22;32779;52.264;6.154;2023-08-08T14:45:26;20.00;99.90
47022;DHT22;32779;52.264;6.154;2023-08-08T14:47:52;20.00;99.90
47022;DHT22;32779;52.264;6.154;2023-08-08T14:50:18;19.90;99.90
47022;DHT22;32779;52.264;6.154;2023-08-08T14:52:44;19.80;99.90
47022;DHT22;32779;52.264;6.154;2023-08-08T14:55:10;19.60;99.90
47022;DHT22;32779;52.264;6.154;2023-08-08T14:57:36;19.50;99.90
47022;DHT22;32779;52.264;6.154;2023-08-08T15:00:02;19.40;99.90
47022;DHT22;32779;52.264;6.154;2023-08-08T15:02:28;19.40;99.90
47022;DHT22;32779;52.264;6.154;2023-08-08T15:04:53;19.40;99.90
47022;DHT22;32779;52.264;6.154;2023-08-08T15:07:19;19.20;99.90
47022;DHT22;32779;52.264;6.154;2023-08-08T15:09:45;19.10;99.90
47022;DHT22;32779;52.264;6.154;2023-08-08T15:12:14;19.00;99.90
47022;DHT22;32779;52.264;6.154;2023-08-08T15:14:40;18.90;99.90
47022;DHT22;32779;52.264;6.154;2023-08-08T15:17:05;18.90;99.90
47022;DHT22;32779;52.264;6.154;2023-08-08T15:19:31;19.00;99.90
47022;DHT22;32779;52.264;6.154;2023-08-08T15:21:56;19.10;99.90
47022;DHT22;32779;52.264;6.154;2023-08-08T15:24:22;19.10;99.90